Time;durP1;ratioP1;P1;durP2;ratioP2;P2;SDS_P1;SDS_P2;PMS_P1;PMS_P2;Temp;Humidity;BMP_temperature;BMP_pressure;BME280_temperature;BME280_humidity;BME280_pressure;Samples;Min_cycle;Max_cycle;Signal;HPM_P1;HPM_P2
2020/12/26 00:01:10;;;;;;;2.95;1.25;;;23.70;73.20;;;;;;5110473;28;20393;-62
2020/12/26 00:03:37;;;;;;;4.18;1.45;;;23.80;73.10;;;;;;5091890;28;20027;-63
2020/12/26 00:06:05;;;;;;;4.30;1.50;;;23.90;73.00;;;;;;5108329;28;20016;-61
2020/12/26 00:08:35;;;;;;;5.38;1.27;;;23.90;72.80;;;;;;5110258;28;20024;-63
2020/12/26 00:11:09;;;;;;;3.70;1.25;;;23.90;72.70;;;;;;5111025;28;20087;-61
2020/12/26 00:13:37;;;;;;;3.30;1.38;;;23.90;72.70;;;;;;5109652;28;20047;-64
2020/12/26 00:16:09;;;;;;;3.67;1.20;;;23.90;72.50;;;;;;5108626;28;20107;-67
2020/12/26 00:18:36;;;;;;;6.68;1.38;;;23.90;72.60;;;;;;5111511;28;20067;-64
2020/12/26 00:21:08;;;;;;;4.38;1.40;;;23.90;72.50;;;;;;5092800;28;20040;-65
2020/12/26 00:23:36;;;;;;;3.25;1.23;;;23.90;72.80;;;;;;5106839;28;20103;-64
2020/12/26 00:26:04;;;;;;;4.03;1.35;;;23.90;73.10;;;;;;5108421;28;20031;-64
2020/12/26 00:28:31;;;;;;;3.58;1.08;;;23.80;72.30;;;;;;5108682;28;20023;-64
2020/12/26 00:30:59;;;;;;;2.70;0.93;;;23.80;73.10;;;;;;5111073;28;20497;-63
2020/12/26 00:33:26;;;;;;;5.68;1.10;;;23.80;73.30;;;;;;5110337;28;20549;-65
2020/12/26 00:35:54;;;;;;;4.35;2.15;;;23.80;73.20;;;;;;5110835;28;20048;-62
2020/12/26 00:38:21;;;;;;;3.92;1.30;;;23.80;73.30;;;;;;5107715;28;20024;-59
2020/12/26 00:40:48;;;;;;;3.47;1.05;;;23.80;73.70;;;;;;5110880;28;20054;-62
2020/12/26 00:43:16;;;;;;;4.50;1.10;;;23.80;73.50;;;;;;5109756;28;20116;-58
2020/12/26 00:45:44;;;;;;;3.95;1.33;;;23.70;73.70;;;;;;5110678;28;20053;-61
2020/12/26 00:48:11;;;;;;;3.65;1.67;;;23.70;73.70;;;;;;5106899;28;20055;-63
2020/12/26 00:50:39;;;;;;;3.83;1.48;;;23.70;73.70;;;;;;5111947;28;20024;-63
2020/12/26 00:53:06;;;;;;;3.75;1.33;;;23.70;73.90;;;;;;5111767;28;20028;-63
2020/12/26 00:55:34;;;;;;;4.50;1.33;;;23.70;74.00;;;;;;5093983;28;20027;-63
2020/12/26 00:58:01;;;;;;;5.57;1.60;;;23.60;73.90;;;;;;5115683;28;20513;-63
2020/12/26 01:00:29;;;;;;;4.57;1.30;;;23.60;73.90;;;;;;5115458;28;20119;-63
2020/12/26 01:02:56;;;;;;;3.15;1.35;;;23.60;74.40;;;;;;5097162;28;20059;-63
2020/12/26 01:05:24;;;;;;;5.80;1.50;;;23.50;74.50;;;;;;5115250;28;20429;-64
2020/12/26 01:07:51;;;;;;;3.95;1.13;;;23.50;74.60;;;;;;5115445;28;20028;-64
2020/12/26 01:10:19;;;;;;;3.63;1.27;;;23.50;74.80;;;;;;5115055;28;20020;-63
2020/12/26 01:12:46;;;;;;;4.50;1.38;;;23.50;74.60;;;;;;5115210;28;20023;-65
2020/12/26 01:15:13;;;;;;;4.32;1.35;;;23.50;75.40;;;;;;5096324;28;20020;-62
2020/12/26 01:17:41;;;;;;;3.72;0.93;;;23.50;74.90;;;;;;5114841;28;20100;-63
2020/12/26 01:20:08;;;;;;;4.18;1.63;;;23.60;74.80;;;;;;5096599;28;20398;-64
2020/12/26 01:22:36;;;;;;;7.50;1.67;;;23.60;74.50;;;;;;5115175;28;20093;-63
2020/12/26 01:25:07;;;;;;;5.15;1.20;;;23.60;74.50;;;;;;5114780;28;20500;-63
2020/12/26 01:27:35;;;;;;;5.95;1.40;;;23.60;73.80;;;;;;5114788;28;20024;-64
2020/12/26 01:30:03;;;;;;;3.25;1.00;;;23.60;74.10;;;;;;5115060;28;20032;-63
2020/12/26 01:32:31;;;;;;;3.42;1.20;;;23.70;74.40;;;;;;5115090;28;20035;-65
2020/12/26 01:35:02;;;;;;;5.78;1.17;;;23.70;73.70;;;;;;5114532;28;20076;-65
2020/12/26 01:37:29;;;;;;;4.85;1.38;;;23.70;73.40;;;;;;5114311;28;20046;-63
2020/12/26 01:39:57;;;;;;;5.80;1.67;;;23.80;73.50;;;;;;5114682;28;20104;-64
2020/12/26 01:42:24;;;;;;;5.07;1.30;;;23.80;73.80;;;;;;5114191;28;20067;-65
2020/12/26 01:44:52;;;;;;;3.47;1.10;;;23.80;73.40;;;;;;5114492;28;20384;-62
2020/12/26 01:47:20;;;;;;;2.95;1.30;;;23.90;73.10;;;;;;5114355;28;20024;-63
2020/12/26 01:49:47;;;;;;;4.22;1.30;;;23.90;73.40;;;;;;5114740;28;20023;-64
2020/12/26 01:52:16;;;;;;;1.67;0.80;;;23.90;72.30;;;;;;5114651;28;20051;-65
2020/12/26 01:54:44;;;;;;;5.32;1.83;;;23.90;73.10;;;;;;5096316;28;20092;-65
2020/12/26 01:57:11;;;;;;;4.30;1.85;;;24.00;72.60;;;;;;5114275;28;20024;-65
2020/12/26 01:59:38;;;;;;;5.25;1.65;;;24.00;73.70;;;;;;5096123;28;20438;-64
2020/12/26 02:02:09;;;;;;;3.20;1.30;;;24.00;72.60;;;;;;5114388;28;20028;-64
2020/12/26 02:04:36;;;;;;;4.75;1.65;;;24.10;72.40;;;;;;5111045;28;20020;-64
2020/12/26 02:07:05;;;;;;;5.95;1.20;;;24.10;72.60;;;;;;5113601;27;20474;-63
2020/12/26 02:09:34;;;;;;;5.50;1.88;;;24.10;72.70;;;;;;5094092;28;20031;-65
2020/12/26 02:12:03;;;;;;;5.80;1.45;;;24.10;72.30;;;;;;5116618;27;20038;-65
2020/12/26 02:14:30;;;;;;;6.90;1.63;;;24.20;72.20;;;;;;5110136;28;20445;-63
2020/12/26 02:16:58;;;;;;;4.82;1.25;;;24.20;72.10;;;;;;5112863;28;20031;-64
2020/12/26 02:19:26;;;;;;;3.00;1.00;;;24.20;71.60;;;;;;5111970;28;20134;-64
2020/12/26 02:21:54;;;;;;;3.50;1.30;;;24.30;71.70;;;;;;5112762;28;20033;-65
2020/12/26 02:24:21;;;;;;;3.92;1.67;;;24.30;72.00;;;;;;5108561;28;20016;-64
2020/12/26 02:26:48;;;;;;;8.82;1.25;;;24.30;71.70;;;;;;5094071;28;20132;-64
2020/12/26 02:29:16;;;;;;;6.25;1.52;;;24.30;71.70;;;;;;5112454;28;20420;-64
2020/12/26 02:31:43;;;;;;;1.65;1.10;;;24.30;71.80;;;;;;5112765;28;20026;-65
2020/12/26 02:34:10;;;;;;;7.45;1.48;;;24.30;71.80;;;;;;5108329;28;20028;-63
2020/12/26 02:36:39;;;;;;;5.53;1.42;;;24.30;71.40;;;;;;5092800;28;20063;-64
2020/12/26 02:39:08;;;;;;;5.63;1.77;;;24.30;71.90;;;;;;5112620;28;20097;-65
2020/12/26 02:41:35;;;;;;;3.67;1.40;;;24.30;71.50;;;;;;5107695;28;20497;-64
2020/12/26 02:44:03;;;;;;;3.67;1.30;;;24.40;71.20;;;;;;5107844;28;20031;-64
2020/12/26 02:46:30;;;;;;;4.57;1.17;;;24.50;71.20;;;;;;5111354;28;20061;-63
2020/12/26 02:48:58;;;;;;;7.50;1.70;;;24.50;70.50;;;;;;5112263;28;20481;-64
2020/12/26 02:51:25;;;;;;;3.25;1.50;;;24.60;69.70;;;;;;5093347;28;20023;-66
2020/12/26 02:53:52;;;;;;;5.25;1.30;;;24.60;70.20;;;;;;5107131;27;20043;-57
2020/12/26 02:56:21;;;;;;;6.50;1.70;;;24.70;70.40;;;;;;5112555;28;20028;-62
2020/12/26 02:58:48;;;;;;;4.80;1.42;;;24.70;70.00;;;;;;5115519;27;20027;-63
2020/12/26 03:01:16;;;;;;;6.47;1.38;;;24.70;69.50;;;;;;5111663;28;20035;-60
2020/12/26 03:03:43;;;;;;;6.10;1.58;;;24.60;68.40;;;;;;5106993;28;20489;-65
2020/12/26 03:06:12;;;;;;;4.70;1.35;;;24.60;69.50;;;;;;5111061;28;20019;-61
2020/12/26 03:08:40;;;;;;;7.68;1.40;;;24.70;70.10;;;;;;5110940;28;20059;-60
2020/12/26 03:11:07;;;;;;;8.10;1.27;;;24.70;70.00;;;;;;5113426;27;20040;-61
2020/12/26 03:13:35;;;;;;;5.15;1.20;;;24.70;70.20;;;;;;5107018;28;20028;-54
2020/12/26 03:16:02;;;;;;;6.82;1.75;;;24.80;69.80;;;;;;5110759;28;20555;-62
2020/12/26 03:18:29;;;;;;;5.93;1.45;;;24.80;70.10;;;;;;5111220;28;20057;-56
2020/12/26 03:20:56;;;;;;;8.52;2.13;;;24.80;69.90;;;;;;5110839;28;20040;-54
2020/12/26 03:23:24;;;;;;;3.75;1.20;;;24.90;69.50;;;;;;5106784;28;20346;-58
2020/12/26 03:25:51;;;;;;;6.13;1.23;;;24.90;68.90;;;;;;5110369;28;20024;-55
2020/12/26 03:28:19;;;;;;;9.40;1.42;;;24.90;69.20;;;;;;5111257;28;20063;-54
2020/12/26 03:30:46;;;;;;;4.82;1.50;;;25.00;68.40;;;;;;5111599;28;20024;-63
2020/12/26 03:33:14;;;;;;;3.63;1.08;;;24.90;69.20;;;;;;5088632;28;20028;-59
2020/12/26 03:35:41;;;;;;;8.05;1.48;;;25.00;68.90;;;;;;5110681;28;20023;-59
2020/12/26 03:38:08;;;;;;;8.15;2.53;;;25.00;69.10;;;;;;5112235;28;20027;-64
2020/12/26 03:40:36;;;;;;;2.92;1.00;;;25.00;69.40;;;;;;5107805;28;20028;-67
2020/12/26 03:43:03;;;;;;;7.88;1.45;;;25.00;69.10;;;;;;5107890;28;20031;-64
2020/12/26 03:45:30;;;;;;;7.82;1.42;;;25.00;68.40;;;;;;5109511;28;20015;-65
2020/12/26 03:47:58;;;;;;;6.95;1.60;;;25.10;68.40;;;;;;5111112;28;20107;-62
2020/12/26 03:50:25;;;;;;;5.65;1.23;;;25.10;69.00;;;;;;5110870;28;20049;-63
2020/12/26 03:52:53;;;;;;;4.75;1.23;;;25.10;68.60;;;;;;5108708;28;20106;-58
2020/12/26 03:55:24;;;;;;;6.75;2.22;;;25.10;68.90;;;;;;5090362;28;20028;-64
2020/12/26 03:57:51;;;;;;;5.38;1.20;;;25.10;68.60;;;;;;5111244;28;20028;-54
2020/12/26 04:00:19;;;;;;;6.80;1.48;;;25.10;68.00;;;;;;5111690;28;20016;-54
2020/12/26 04:02:46;;;;;;;4.95;1.20;;;25.10;68.40;;;;;;5106771;28;20031;-60
2020/12/26 04:05:13;;;;;;;3.80;1.13;;;25.10;68.50;;;;;;5087470;28;20535;-59
2020/12/26 04:07:41;;;;;;;6.70;1.58;;;25.10;68.80;;;;;;5111066;28;20081;-60
2020/12/26 04:10:08;;;;;;;7.97;2.15;;;25.10;68.10;;;;;;5111121;28;20088;-66
2020/12/26 04:12:35;;;;;;;3.92;1.60;;;25.10;68.20;;;;;;5110460;28;20024;-59
2020/12/26 04:15:03;;;;;;;9.55;1.50;;;25.10;68.40;;;;;;5105440;28;20034;-65
2020/12/26 04:17:33;;;;;;;5.55;1.42;;;25.10;68.50;;;;;;5111201;28;20427;-65
2020/12/26 04:20:01;;;;;;;6.05;1.80;;;25.10;68.70;;;;;;5111493;28;20048;-58
2020/12/26 04:22:28;;;;;;;4.80;1.25;;;25.10;68.00;;;;;;5092243;28;20031;-59
2020/12/26 04:24:55;;;;;;;5.10;1.73;;;25.00;68.50;;;;;;5105647;28;20406;-58
2020/12/26 04:27:23;;;;;;;6.60;1.90;;;25.00;68.10;;;;;;5110476;28;20114;-63
2020/12/26 04:29:50;;;;;;;5.25;1.63;;;25.00;68.30;;;;;;5111774;27;20110;-63
2020/12/26 04:32:17;;;;;;;5.88;1.65;;;25.00;68.70;;;;;;5136058;27;20116;-63
2020/12/26 04:34:48;;;;;;;4.80;1.10;;;25.00;69.30;;;;;;5137002;27;20057;-65
2020/12/26 04:37:15;;;;;;;5.63;1.35;;;24.90;68.50;;;;;;5136472;27;20442;-64
2020/12/26 04:39:44;;;;;;;4.07;1.30;;;24.90;68.80;;;;;;5136362;27;20578;-63
2020/12/26 04:42:11;;;;;;;8.27;1.77;;;24.90;68.50;;;;;;5136316;27;20027;-64
2020/12/26 04:44:39;;;;;;;7.00;1.60;;;24.90;68.50;;;;;;5136346;27;20118;-63
2020/12/26 04:47:11;;;;;;;4.72;1.40;;;24.80;68.80;;;;;;5136687;27;20027;-64
2020/12/26 04:49:39;;;;;;;;;;;24.80;68.90;;;;;;5137022;27;20031;-64
2020/12/26 04:52:10;;;;;;;4.32;1.13;;;24.80;69.10;;;;;;5136240;27;19947;-64
2020/12/26 04:54:46;;;;;;;4.72;1.60;;;24.80;69.30;;;;;;5136027;27;20023;-64
2020/12/26 04:57:16;;;;;;;7.85;1.58;;;24.70;69.30;;;;;;5134633;27;20031;-63
2020/12/26 04:59:43;;;;;;;5.22;1.15;;;24.60;69.50;;;;;;5135610;27;20487;-64
2020/12/26 05:02:13;;;;;;;7.57;1.75;;;24.60;69.50;;;;;;5135972;27;20496;-64
2020/12/26 05:04:43;;;;;;;3.78;1.05;;;24.60;69.70;;;;;;5136262;27;20025;-65
2020/12/26 05:07:11;;;;;;;6.65;1.48;;;24.60;69.80;;;;;;5135705;27;20027;-64
2020/12/26 05:09:38;;;;;;;6.38;1.58;;;24.50;69.70;;;;;;5135886;27;20083;-64
2020/12/26 05:12:06;;;;;;;6.45;1.50;;;24.50;69.80;;;;;;5135752;27;20114;-64
2020/12/26 05:14:33;;;;;;;4.15;1.25;;;24.40;69.90;;;;;;5136131;27;20023;-65
2020/12/26 05:17:01;;;;;;;4.82;1.42;;;24.30;70.00;;;;;;5135324;27;20226;-63
2020/12/26 05:19:28;;;;;;;5.90;1.20;;;24.30;70.00;;;;;;5117057;27;20119;-62
2020/12/26 05:21:57;;;;;;;5.10;1.10;;;24.30;70.40;;;;;;5117217;27;20118;-63
2020/12/26 05:24:24;;;;;;;4.43;1.42;;;24.20;70.40;;;;;;5136037;27;20027;-62
2020/12/26 05:26:53;;;;;;;3.88;1.25;;;24.20;70.60;;;;;;5135281;27;20591;-64
2020/12/26 05:29:24;;;;;;;7.30;1.50;;;24.10;70.80;;;;;;5135765;27;20076;-63
2020/12/26 05:31:57;;;;;;;5.43;1.50;;;24.10;71.00;;;;;;5117226;27;20033;-63
2020/12/26 05:34:36;;;;;;;5.85;1.52;;;24.10;71.20;;;;;;5135450;27;20015;-64
2020/12/26 05:37:04;;;;;;;5.32;1.48;;;24.10;71.20;;;;;;5135459;27;20037;-62
2020/12/26 05:39:39;;;;;;;4.55;1.45;;;24.00;71.50;;;;;;5134794;27;20620;-62
2020/12/26 05:42:07;;;;;;;3.90;1.20;;;24.00;71.50;;;;;;5114812;27;20471;-63
2020/12/26 05:44:37;;;;;;;3.90;1.42;;;23.90;71.70;;;;;;5114956;28;20050;-62
2020/12/26 05:47:06;;;;;;;3.92;1.52;;;23.90;71.60;;;;;;5112634;28;20026;-62
2020/12/26 05:49:36;;;;;;;4.70;1.27;;;23.90;71.90;;;;;;5111409;28;20448;-64
2020/12/26 05:52:17;;;;;;;6.65;2.00;;;23.80;71.80;;;;;;5112304;28;20062;-62
2020/12/26 05:54:52;;;;;;;4.90;1.08;;;23.90;72.00;;;;;;5111520;28;20145;-62
2020/12/26 05:57:22;;;;;;;6.85;1.50;;;23.90;72.00;;;;;;5111327;28;20367;-62
2020/12/26 05:59:51;;;;;;;5.13;2.00;;;23.80;71.90;;;;;;5112573;28;20024;-64
2020/12/26 06:02:21;;;;;;;4.32;1.35;;;23.80;72.10;;;;;;5114225;28;20093;-63
2020/12/26 06:04:56;;;;;;;5.93;1.67;;;23.80;72.30;;;;;;5113296;28;20023;-63
2020/12/26 06:07:32;;;;;;;4.72;1.50;;;23.70;72.10;;;;;;5112652;28;20030;-62
2020/12/26 06:10:01;;;;;;;5.53;1.40;;;23.70;72.20;;;;;;5109928;28;20023;-64
2020/12/26 06:12:30;;;;;;;3.90;1.10;;;23.60;72.60;;;;;;5099836;28;20027;-64
2020/12/26 06:14:58;;;;;;;4.20;1.40;;;23.70;72.60;;;;;;5105201;28;20346;-63
2020/12/26 06:17:33;;;;;;;3.55;1.00;;;23.60;72.20;;;;;;5093373;28;20036;-64
2020/12/26 06:20:06;;;;;;;4.20;1.17;;;23.60;72.30;;;;;;5093685;28;20043;-63
2020/12/26 06:22:46;;;;;;;4.93;1.58;;;23.60;72.40;;;;;;5093685;28;20097;-63
2020/12/26 06:25:19;;;;;;;4.88;1.15;;;23.60;72.60;;;;;;5093337;28;20016;-64
2020/12/26 06:28:08;;;;;;;5.38;1.63;;;23.60;72.70;;;;;;5093600;28;20105;-63
2020/12/26 06:30:39;;;;;;;5.75;1.58;;;23.60;72.80;;;;;;5093252;28;20656;-65
2020/12/26 06:33:07;;;;;;;3.60;1.00;;;23.60;73.00;;;;;;5093345;28;20023;-61
2020/12/26 06:35:35;;;;;;;4.13;1.45;;;23.60;73.90;;;;;;5093395;28;20023;-63
2020/12/26 06:38:13;;;;;;;6.32;1.67;;;23.50;73.30;;;;;;5105546;27;20626;-63
2020/12/26 06:40:58;;;;;;;5.00;1.40;;;23.50;73.20;;;;;;5108900;28;20023;-64
2020/12/26 06:43:40;;;;;;;6.78;1.45;;;23.50;73.20;;;;;;5093117;28;20036;-61
2020/12/26 06:46:22;;;;;;;3.03;1.20;;;23.50;73.20;;;;;;5093236;28;20089;-61
2020/12/26 06:48:52;;;;;;;4.25;1.00;;;23.50;73.30;;;;;;5092800;28;20028;-62
2020/12/26 06:51:25;;;;;;;4.70;1.50;;;23.50;73.30;;;;;;5093197;28;20541;-62
2020/12/26 06:53:53;;;;;;;5.25;1.40;;;23.40;73.30;;;;;;5092613;28;20039;-63
2020/12/26 06:56:36;;;;;;;5.85;1.67;;;23.40;73.70;;;;;;5092880;28;20042;-66
2020/12/26 06:59:03;;;;;;;4.80;1.45;;;23.40;74.20;;;;;;5092572;28;20110;-64
2020/12/26 07:01:32;;;;;;;6.15;1.55;;;23.50;73.90;;;;;;5092823;28;20032;-62
2020/12/26 07:04:11;;;;;;;7.47;1.83;;;23.40;74.00;;;;;;5097679;27;20027;-63
2020/12/26 07:06:48;;;;;;;4.63;1.38;;;23.40;74.80;;;;;;5109698;27;20470;-64
2020/12/26 07:09:18;;;;;;;5.20;1.80;;;23.50;75.10;;;;;;5112397;27;20011;-65
2020/12/26 07:11:51;;;;;;;11.10;2.65;;;23.50;75.60;;;;;;5111164;28;20027;-57
2020/12/26 07:14:38;;;;;;;6.20;1.70;;;23.50;75.40;;;;;;5110523;28;20023;-61
2020/12/26 07:17:28;;;;;;;9.18;1.90;;;23.50;75.30;;;;;;5109946;28;20546;-54
2020/12/26 07:19:58;;;;;;;5.35;1.70;;;23.50;75.20;;;;;;5093308;28;20351;-62
2020/12/26 07:22:33;;;;;;;8.95;2.28;;;23.50;75.10;;;;;;5094915;28;20034;-56
2020/12/26 07:25:08;;;;;;;8.90;1.98;;;23.50;75.20;;;;;;5109480;28;20031;-55
2020/12/26 07:27:40;;;;;;;12.15;2.05;;;23.50;75.90;;;;;;5107565;28;20035;-61
2020/12/26 07:30:19;;;;;;;7.03;2.20;;;23.50;75.50;;;;;;5109002;28;20024;-65
2020/12/26 07:32:58;;;;;;;6.32;1.55;;;23.60;75.60;;;;;;5111535;28;20112;-62
2020/12/26 07:35:25;;;;;;;7.20;1.60;;;23.50;75.40;;;;;;5110987;28;20100;-61
2020/12/26 07:37:57;;;;;;;7.53;2.35;;;23.50;75.40;;;;;;5107113;28;21163;-62
2020/12/26 07:40:25;;;;;;;7.38;1.70;;;23.50;75.40;;;;;;5110827;28;20024;-60
2020/12/26 07:42:53;;;;;;;7.85;1.60;;;23.50;75.50;;;;;;5107592;28;20505;-62
2020/12/26 07:45:25;;;;;;;6.15;1.58;;;23.60;75.60;;;;;;5111318;28;20049;-65
2020/12/26 07:47:57;;;;;;;5.45;1.73;;;23.60;75.60;;;;;;5103190;28;21214;-58
2020/12/26 07:50:27;;;;;;;;;;;23.60;75.50;;;;;;5107849;28;20038;-58
2020/12/26 07:53:01;;;;;;;6.60;1.67;;;23.60;75.40;;;;;;5107838;28;20253;-61
2020/12/26 07:55:29;;;;;;;6.28;2.40;;;23.60;75.30;;;;;;5107827;28;20019;-63
2020/12/26 07:58:09;;;;;;;6.60;2.05;;;23.60;75.30;;;;;;5104040;28;20474;-63
2020/12/26 08:00:38;;;;;;;7.13;2.00;;;23.60;75.30;;;;;;5108297;28;20126;-61
2020/12/26 08:03:13;;;;;;;6.82;1.95;;;23.60;75.30;;;;;;5110203;28;20039;-59
2020/12/26 08:05:42;;;;;;;4.60;1.42;;;23.60;75.10;;;;;;5111590;28;20102;-60
2020/12/26 08:08:23;;;;;;;7.35;1.42;;;23.50;75.10;;;;;;5110179;28;21296;-60
2020/12/26 08:10:59;;;;;;;7.63;1.95;;;23.50;75.20;;;;;;5114612;28;20461;-60
2020/12/26 08:13:26;;;;;;;5.50;1.70;;;23.50;75.30;;;;;;5114816;28;20489;-64
2020/12/26 08:16:06;;;;;;;7.85;1.63;;;23.50;75.30;;;;;;5115342;28;20027;-66
2020/12/26 08:18:35;;;;;;;8.60;1.92;;;23.50;75.30;;;;;;5107041;28;20130;-63
2020/12/26 08:21:06;;;;;;;10.70;2.05;;;23.50;75.30;;;;;;5110872;28;20124;-64
2020/12/26 08:23:33;;;;;;;7.10;1.77;;;23.50;75.30;;;;;;5110534;28;20047;-62
2020/12/26 08:26:01;;;;;;;4.53;1.40;;;23.50;75.20;;;;;;5096762;28;20089;-70
2020/12/26 08:28:30;;;;;;;5.65;1.75;;;23.50;75.20;;;;;;5110609;28;20039;-64
2020/12/26 08:31:04;;;;;;;9.60;2.28;;;23.50;75.20;;;;;;5114791;28;20020;-61
2020/12/26 08:33:38;;;;;;;8.20;2.03;;;23.50;75.00;;;;;;5113866;28;20031;-63
2020/12/26 08:36:28;;;;;;;6.03;2.17;;;23.50;75.00;;;;;;5111495;28;20050;-58
2020/12/26 08:39:00;;;;;;;7.75;1.67;;;23.50;75.00;;;;;;5109904;28;20031;-63
2020/12/26 08:41:28;;;;;;;9.48;1.88;;;23.50;74.80;;;;;;5114186;28;20386;-63
2020/12/26 08:43:56;;;;;;;4.60;1.70;;;23.50;75.10;;;;;;5095623;28;20077;-63
2020/12/26 08:46:28;;;;;;;8.65;1.83;;;23.50;75.10;;;;;;5115057;28;20020;-63
2020/12/26 08:48:55;;;;;;;6.85;1.85;;;23.40;75.00;;;;;;5110115;28;20032;-63
2020/12/26 08:51:29;;;;;;;12.00;2.65;;;23.50;75.10;;;;;;5114356;28;20431;-67
2020/12/26 08:53:57;;;;;;;4.22;1.52;;;23.40;75.00;;;;;;5114185;28;20331;-64
2020/12/26 08:56:39;;;;;;;4.30;1.63;;;23.40;74.90;;;;;;5114800;28;20089;-58
2020/12/26 08:59:06;;;;;;;5.45;1.60;;;23.50;75.00;;;;;;5110570;27;20039;-63
2020/12/26 09:01:35;;;;;;;6.25;1.45;;;23.40;75.10;;;;;;5113806;28;20112;-56
2020/12/26 09:04:03;;;;;;;4.45;1.20;;;23.40;75.10;;;;;;5113699;28;20452;-55
2020/12/26 09:06:38;;;;;;;4.53;1.75;;;23.40;75.20;;;;;;5114537;28;20103;-55
2020/12/26 09:09:19;;;;;;;7.15;2.42;;;23.50;75.20;;;;;;5109405;28;20164;-62
2020/12/26 09:11:48;;;;;;;11.43;1.90;;;23.50;75.80;;;;;;5109740;28;20137;-59
2020/12/26 09:14:16;;;;;;;7.85;1.73;;;23.50;75.10;;;;;;5095487;28;20019;-61
2020/12/26 09:16:43;;;;;;;12.25;2.15;;;23.40;75.10;;;;;;5113964;28;20023;-63
2020/12/26 09:19:11;;;;;;;6.05;1.55;;;23.50;75.20;;;;;;5109086;28;20044;-62
2020/12/26 09:21:38;;;;;;;5.53;1.67;;;23.50;75.20;;;;;;5113096;28;20035;-62
2020/12/26 09:24:20;;;;;;;5.63;1.90;;;23.40;75.10;;;;;;5113321;28;20110;-62
2020/12/26 09:26:48;;;;;;;;;;;23.40;75.70;;;;;;5114374;28;20051;-66
2020/12/26 09:29:22;;;;;;;6.22;1.55;;;23.40;75.20;;;;;;5108923;28;19904;-65
2020/12/26 09:31:50;;;;;;;7.50;1.73;;;23.40;75.20;;;;;;5114675;28;20027;-64
2020/12/26 09:34:21;;;;;;;4.00;1.50;;;23.40;75.30;;;;;;5115283;28;20103;-63
2020/12/26 09:37:02;;;;;;;8.57;2.25;;;23.40;75.40;;;;;;5111813;28;20388;-64
2020/12/26 09:39:29;;;;;;;7.60;2.10;;;23.40;75.50;;;;;;5114609;28;20133;-64
2020/12/26 09:41:57;;;;;;;6.60;1.45;;;23.30;75.50;;;;;;5114579;28;20135;-63
2020/12/26 09:44:24;;;;;;;5.30;1.40;;;23.30;75.60;;;;;;5114884;28;20072;-59
2020/12/26 09:46:58;;;;;;;6.05;1.92;;;23.20;75.60;;;;;;5115038;28;20032;-64
2020/12/26 09:49:26;;;;;;;6.57;1.80;;;23.30;75.80;;;;;;5114347;28;20027;-63
2020/12/26 09:51:54;;;;;;;5.75;1.55;;;23.20;75.80;;;;;;5114144;28;20049;-62
2020/12/26 09:54:22;;;;;;;7.57;1.80;;;23.20;75.90;;;;;;5114417;28;20019;-64
2020/12/26 09:56:49;;;;;;;4.88;1.60;;;23.20;76.00;;;;;;5114261;28;20363;-60
2020/12/26 09:59:17;;;;;;;5.13;1.38;;;23.10;76.10;;;;;;5113652;28;20043;-63
2020/12/26 10:01:46;;;;;;;6.10;1.73;;;23.10;76.20;;;;;;5114158;28;20065;-61
2020/12/26 10:04:14;;;;;;;5.47;1.85;;;23.00;76.30;;;;;;5114328;28;20022;-63
2020/12/26 10:06:44;;;;;;;6.13;1.83;;;23.00;76.40;;;;;;5113857;28;20359;-63
2020/12/26 10:09:12;;;;;;;4.90;1.50;;;23.00;76.40;;;;;;5114067;28;20072;-64
2020/12/26 10:11:39;;;;;;;4.80;1.42;;;23.00;76.50;;;;;;5114516;28;20102;-62
2020/12/26 10:14:06;;;;;;;3.55;1.63;;;23.00;76.60;;;;;;5114482;28;20126;-56
2020/12/26 10:16:34;;;;;;;4.43;1.42;;;23.00;76.70;;;;;;5114284;28;20027;-57
2020/12/26 10:19:01;;;;;;;5.47;1.50;;;22.90;76.80;;;;;;5113971;28;20055;-57
2020/12/26 10:21:28;;;;;;;4.60;1.48;;;22.90;76.90;;;;;;5113029;28;20030;-63
2020/12/26 10:23:56;;;;;;;7.45;1.98;;;22.90;76.90;;;;;;5113849;28;20389;-58
2020/12/26 10:26:23;;;;;;;16.02;2.70;;;22.90;77.20;;;;;;5113725;28;20464;-59
2020/12/26 10:28:51;;;;;;;9.77;2.17;;;22.90;77.40;;;;;;5103010;28;20073;-54
2020/12/26 10:31:18;;;;;;;6.72;1.63;;;22.90;78.50;;;;;;5108979;28;20606;-56
2020/12/26 10:33:49;;;;;;;9.38;2.25;;;22.90;78.90;;;;;;5113137;28;20019;-58
2020/12/26 10:36:17;;;;;;;4.77;1.93;;;22.90;78.40;;;;;;5112211;28;20048;-61
2020/12/26 10:38:45;;;;;;;7.75;2.13;;;22.90;78.40;;;;;;5111173;28;20276;-54
2020/12/26 10:41:12;;;;;;;7.93;2.58;;;22.90;78.40;;;;;;5112526;28;20398;-61
2020/12/26 10:43:40;;;;;;;6.57;1.77;;;22.90;78.40;;;;;;5112266;28;20034;-60
2020/12/26 10:46:08;;;;;;;6.50;2.15;;;22.90;78.30;;;;;;5092321;28;20016;-51
2020/12/26 10:48:35;;;;;;;11.13;2.30;;;22.90;78.40;;;;;;5093711;28;20026;-56
2020/12/26 10:51:05;;;;;;;7.28;2.13;;;22.90;78.30;;;;;;5111947;28;20084;-62
2020/12/26 10:53:33;;;;;;;6.05;1.70;;;22.90;78.30;;;;;;5094644;28;20024;-61
2020/12/26 10:56:00;;;;;;;8.32;1.88;;;22.90;78.30;;;;;;5108044;28;20050;-59
2020/12/26 10:58:28;;;;;;;4.03;1.83;;;22.90;78.40;;;;;;5111711;28;20460;-56
2020/12/26 11:00:56;;;;;;;8.35;1.80;;;22.90;78.40;;;;;;5107646;28;20024;-55
2020/12/26 11:03:23;;;;;;;10.23;2.15;;;22.80;78.40;;;;;;5111923;28;20035;-58
2020/12/26 11:05:50;;;;;;;6.05;1.60;;;22.80;78.50;;;;;;5107804;28;20462;-59
2020/12/26 11:08:18;;;;;;;3.88;1.40;;;22.80;78.50;;;;;;5110893;28;20032;-52
2020/12/26 11:10:48;;;;;;;6.18;1.60;;;22.80;78.60;;;;;;5111575;28;20050;-61
2020/12/26 11:13:16;;;;;;;8.10;2.33;;;22.80;78.60;;;;;;5111850;28;20351;-61
2020/12/26 11:15:43;;;;;;;6.07;1.70;;;22.80;78.60;;;;;;5107365;28;20040;-61
2020/12/26 11:18:10;;;;;;;6.88;1.65;;;22.80;78.50;;;;;;5110998;28;20039;-61
2020/12/26 11:20:38;;;;;;;6.70;1.92;;;22.80;78.50;;;;;;5111681;28;20447;-57
2020/12/26 11:23:05;;;;;;;6.85;1.70;;;22.80;78.30;;;;;;5111993;28;20174;-52
2020/12/26 11:25:33;;;;;;;6.57;1.77;;;22.80;78.30;;;;;;5107526;28;20034;-57
2020/12/26 11:28:02;;;;;;;4.70;1.58;;;22.80;78.20;;;;;;5092464;28;20073;-52
2020/12/26 11:30:29;;;;;;;5.75;1.52;;;22.80;78.30;;;;;;5111643;28;20023;-62
2020/12/26 11:32:56;;;;;;;7.43;1.98;;;22.80;78.30;;;;;;5112202;28;20027;-55
2020/12/26 11:35:29;;;;;;;5.60;1.83;;;22.80;78.30;;;;;;5107016;28;20474;-58
2020/12/26 11:37:57;;;;;;;6.78;2.13;;;22.80;78.20;;;;;;5110936;28;20034;-61
2020/12/26 11:40:24;;;;;;;7.53;2.28;;;22.80;78.40;;;;;;5111447;28;20392;-60
2020/12/26 11:42:51;;;;;;;7.55;2.20;;;22.80;78.40;;;;;;5111195;28;20043;-60
2020/12/26 11:45:19;;;;;;;6.80;1.88;;;22.80;78.30;;;;;;5106900;28;20382;-53
2020/12/26 11:47:46;;;;;;;6.32;1.60;;;22.80;78.40;;;;;;5110742;28;20474;-53
2020/12/26 11:50:14;;;;;;;7.03;1.88;;;22.80;78.40;;;;;;5111732;28;20024;-60
2020/12/26 11:52:41;;;;;;;6.13;1.58;;;22.80;78.30;;;;;;5110669;28;20177;-62
2020/12/26 11:55:09;;;;;;;5.15;1.42;;;22.70;78.30;;;;;;5106950;28;20381;-62
2020/12/26 11:57:37;;;;;;;4.65;1.67;;;22.70;78.30;;;;;;5110101;28;20038;-58
2020/12/26 12:00:04;;;;;;;6.68;1.80;;;22.70;78.30;;;;;;5111012;28;20023;-59
2020/12/26 12:02:32;;;;;;;5.13;1.50;;;22.70;78.20;;;;;;5110535;28;20487;-61
2020/12/26 12:04:59;;;;;;;5.55;1.75;;;22.70;78.40;;;;;;5106413;28;20035;-59
2020/12/26 12:07:26;;;;;;;7.97;1.75;;;22.70;78.40;;;;;;5110345;28;20031;-58
2020/12/26 12:09:54;;;;;;;7.25;1.83;;;22.70;78.30;;;;;;5111125;28;20412;-61
2020/12/26 12:12:21;;;;;;;8.25;1.95;;;22.70;78.20;;;;;;5111007;28;20019;-62
2020/12/26 12:14:48;;;;;;;5.88;1.42;;;22.70;78.30;;;;;;5106731;28;20031;-60
2020/12/26 12:17:16;;;;;;;6.70;2.03;;;22.70;78.40;;;;;;5110642;28;20020;-59
2020/12/26 12:19:43;;;;;;;4.85;1.65;;;22.70;78.30;;;;;;5092542;28;20055;-58
2020/12/26 12:22:10;;;;;;;4.72;1.50;;;22.70;78.30;;;;;;5113518;28;20034;-58
2020/12/26 12:24:38;;;;;;;3.72;1.30;;;22.70;78.20;;;;;;5106804;28;20377;-55
2020/12/26 12:27:05;;;;;;;8.02;1.48;;;22.70;78.20;;;;;;5111078;28;20019;-59
2020/12/26 12:29:33;;;;;;;5.72;1.67;;;22.70;78.10;;;;;;5110674;28;20049;-56
2020/12/26 12:32:00;;;;;;;8.05;2.00;;;22.70;78.10;;;;;;5110617;28;20056;-57
2020/12/26 12:34:27;;;;;;;6.80;1.73;;;22.70;78.10;;;;;;5106862;28;20521;-56
2020/12/26 12:36:55;;;;;;;5.97;1.73;;;22.70;78.00;;;;;;5111214;28;20019;-63
2020/12/26 12:39:22;;;;;;;9.80;2.30;;;22.70;78.00;;;;;;5110360;28;20024;-60
2020/12/26 12:41:53;;;;;;;8.35;1.58;;;22.70;77.90;;;;;;5111088;28;20028;-62
2020/12/26 12:44:21;;;;;;;6.35;1.77;;;22.70;77.90;;;;;;5106471;28;20127;-60
2020/12/26 12:46:48;;;;;;;3.67;1.20;;;22.80;77.90;;;;;;5110884;28;20084;-59
2020/12/26 12:49:16;;;;;;;5.75;1.83;;;22.70;77.90;;;;;;5110506;28;20024;-62
2020/12/26 12:51:43;;;;;;;5.38;1.65;;;22.70;77.70;;;;;;5093138;28;20027;-62
2020/12/26 12:54:10;;;;;;;6.30;1.55;;;22.70;77.80;;;;;;5109295;28;20381;-60
2020/12/26 12:56:37;;;;;;;6.53;1.45;;;22.70;77.70;;;;;;5096767;28;20478;-55
2020/12/26 12:59:05;;;;;;;5.22;2.35;;;22.70;77.60;;;;;;5114154;28;20027;-54